createdAt,value
2017-09-25T00:03:29.580Z,59.4
2017-09-25T00:08:34.638Z,59.4
2017-09-25T00:13:40.369Z,59.4
2017-09-25T00:18:45.761Z,59.4
2017-09-25T00:23:51.493Z,59.3
2017-09-25T00:28:56.887Z,59.3
2017-09-25T00:34:01.948Z,59.3
2017-09-25T00:39:07.698Z,59.3
2017-09-25T00:44:13.764Z,59.3
2017-09-25T00:49:19.495Z,59.3
2017-09-25T00:54:24.562Z,59.3
2017-09-25T00:59:28.951Z,59.2
2017-09-25T01:04:34.011Z,59.2
2017-09-25T01:09:38.738Z,59.2
2017-09-25T01:14:44.468Z,59.2
2017-09-25T01:19:50.201Z,59.2
2017-09-25T01:24:55.930Z,59.2
2017-09-25T01:30:00.659Z,59.2
2017-09-25T01:35:05.383Z,59.3
2017-09-25T01:40:10.779Z,59.3
2017-09-25T01:45:16.174Z,59.3
2017-09-25T01:50:21.235Z,59.2
2017-09-25T01:55:25.630Z,59.3
2017-09-25T02:00:30.697Z,59.2
2017-09-25T02:05:35.748Z,59.2
2017-09-25T02:10:40.811Z,59.2
2017-09-25T02:15:45.543Z,59.2
2017-09-25T02:20:50.937Z,59.2
2017-09-25T02:25:57.003Z,59.2
2017-09-25T02:31:02.396Z,59.2
2017-09-25T02:36:07.788Z,59.1
2017-09-25T02:41:13.182Z,59.1
2017-09-25T02:46:18.580Z,59.1
2017-09-25T02:51:23.640Z,59.1
2017-09-25T02:56:29.043Z,59
2017-09-25T03:01:34.097Z,59
2017-09-25T03:06:39.491Z,59
2017-09-25T03:11:44.551Z,59
2017-09-25T03:16:49.611Z,59
2017-09-25T03:21:55.677Z,58.9
2017-09-25T03:27:01.074Z,58.9
2017-09-25T03:32:06.806Z,58.9
2017-09-25T03:37:11.866Z,58.9
2017-09-25T03:42:17.260Z,58.9
2017-09-25T03:47:22.990Z,58.8
2017-09-25T03:52:28.383Z,58.8
2017-09-25T03:57:33.778Z,58.7
2017-09-25T04:02:38.504Z,58.7
2017-09-25T04:07:43.905Z,58.7
2017-09-25T04:12:48.972Z,58.6
2017-09-25T04:17:54.031Z,58.6
2017-09-25T04:22:58.757Z,58.6
2017-09-25T04:28:03.817Z,58.6
2017-09-25T04:33:08.225Z,58.6
2017-09-25T04:38:13.636Z,58.5
2017-09-25T04:43:18.695Z,58.5
2017-09-25T04:48:23.095Z,58.5
2017-09-25T04:53:27.820Z,58.6
2017-09-25T04:58:33.564Z,58.6
2017-09-25T05:03:38.296Z,58.9
2017-09-25T05:08:42.355Z,59.7
2017-09-25T05:13:46.744Z,59.9
2017-09-25T05:18:52.137Z,60
2017-09-25T05:23:57.535Z,60
2017-09-25T05:29:02.926Z,59.9
2017-09-25T05:34:08.323Z,59.8
2017-09-25T05:39:13.383Z,59.8
2017-09-25T05:44:18.447Z,59.7
2017-09-25T05:49:24.181Z,59.5
2017-09-25T05:54:29.577Z,58.4
2017-09-25T05:59:34.975Z,57.3
2017-09-25T06:04:39.702Z,57
2017-09-25T06:09:45.432Z,57
2017-09-25T06:14:50.165Z,56.5
2017-09-25T06:19:55.235Z,55.8
2017-09-25T06:25:00.301Z,55.5
2017-09-25T06:30:06.054Z,55.5
2017-09-25T06:35:11.768Z,55.9
2017-09-25T06:40:16.826Z,56.6
2017-09-25T06:45:21.547Z,57
2017-09-25T06:50:26.275Z,57.2
2017-09-25T06:55:32.344Z,57.2
2017-09-25T07:00:38.412Z,57.2
2017-09-25T07:05:44.474Z,57.2
2017-09-25T07:10:50.540Z,57.2
2017-09-25T07:15:55.604Z,57.2
2017-09-25T07:21:01.336Z,57.2
2017-09-25T07:26:06.728Z,57.2
2017-09-25T07:31:11.463Z,57.1
2017-09-25T07:36:17.193Z,57.1
2017-09-25T07:41:21.923Z,57.1
2017-09-25T07:46:26.649Z,57.1
2017-09-25T07:51:32.377Z,57.1
2017-09-25T07:56:37.440Z,57.2
2017-09-25T08:01:42.839Z,57.2
2017-09-25T08:06:48.233Z,57.3
2017-09-25T08:11:53.627Z,57.6
2017-09-25T08:16:58.354Z,57.8
2017-09-25T08:22:03.418Z,57.8
2017-09-25T08:27:08.482Z,57.8
2017-09-25T08:32:14.218Z,57.8
2017-09-25T08:37:19.617Z,57.8
2017-09-25T08:42:24.675Z,57.7
2017-09-25T08:47:29.412Z,57.7
2017-09-25T08:52:34.478Z,57.6
2017-09-25T08:57:39.542Z,57.6
2017-09-25T09:02:44.934Z,57.6
2017-09-25T09:07:50.663Z,57.6
2017-09-25T09:12:55.394Z,57.5
2017-09-25T09:18:01.133Z,57.5
2017-09-25T09:23:06.190Z,57.4
2017-09-25T09:28:10.915Z,57.4
2017-09-25T09:33:16.980Z,57.3
2017-09-25T09:38:22.043Z,57.3
2017-09-25T09:43:27.440Z,57.2
2017-09-25T09:48:32.167Z,57.2
2017-09-25T09:53:37.563Z,57.2
2017-09-25T09:58:42.625Z,57.1
2017-09-25T10:03:48.020Z,57.1
2017-09-25T10:08:53.750Z,57.1
2017-09-25T10:13:59.480Z,57.1
2017-09-25T10:19:05.211Z,57.1
2017-09-25T10:24:10.271Z,57
2017-09-25T10:29:15.673Z,57
2017-09-25T10:34:21.410Z,56.8
2017-09-25T10:39:27.148Z,56.7
2017-09-25T10:44:32.214Z,56.5
2017-09-25T10:49:37.952Z,56.4
2017-09-25T10:54:43.024Z,56.3
2017-09-25T10:59:47.415Z,56.3
2017-09-25T11:04:52.535Z,56.2
2017-09-25T11:09:58.269Z,56.2
2017-09-25T11:15:03.336Z,56.2
2017-09-25T11:20:08.405Z,56.1
2017-09-25T11:25:13.469Z,56.2
2017-09-25T11:30:18.875Z,56.3
2017-09-25T11:35:23.267Z,56.3
2017-09-25T11:40:28.333Z,56.3
2017-09-25T11:45:33.061Z,56.4
2017-09-25T11:50:38.125Z,56.6
2017-09-25T11:55:43.192Z,56.8
2017-09-25T12:00:48.589Z,56.9
2017-09-25T12:05:53.658Z,56.8
2017-09-25T12:10:58.392Z,56.7
2017-09-25T12:16:02.452Z,56.6
2017-09-25T12:21:07.856Z,56.4
2017-09-25T12:26:13.253Z,56.2
2017-09-25T12:31:18.660Z,56.1
2017-09-25T12:36:23.727Z,56
2017-09-25T12:41:29.468Z,55.9
2017-09-25T12:46:34.869Z,55.9
2017-09-25T12:51:39.936Z,55.8
2017-09-25T12:56:45.014Z,55.7
2017-09-25T13:01:50.415Z,55.6
2017-09-25T13:06:55.823Z,55.7
2017-09-25T13:12:01.558Z,55.7
2017-09-25T13:17:07.318Z,55.8
2017-09-25T13:22:12.719Z,55.8
2017-09-25T13:27:18.469Z,55.9
2017-09-25T13:32:22.901Z,55.9
2017-09-25T13:37:28.317Z,56
2017-09-25T13:42:34.048Z,56.1
2017-09-25T13:47:39.133Z,56.1
2017-09-25T13:52:44.878Z,56.2
2017-09-25T13:57:50.280Z,56.2
2017-09-25T14:02:55.706Z,56.2
2017-09-25T14:08:01.445Z,56.3
2017-09-25T14:13:07.185Z,56.3
2017-09-25T14:18:12.589Z,56.4
2017-09-25T14:23:18.001Z,56.5
2017-09-25T14:28:23.531Z,56.6
2017-09-25T14:33:28.929Z,56.6
2017-09-25T14:38:34.198Z,56.7
2017-09-25T14:43:39.603Z,56.7
2017-09-25T14:48:44.715Z,56.8
2017-09-25T14:53:50.128Z,56.8
2017-09-25T14:58:55.538Z,56.8
2017-09-25T15:04:00.935Z,57.1
2017-09-25T15:09:06.009Z,57.2
2017-09-25T15:14:11.747Z,57.1
2017-09-25T15:19:16.808Z,57.1
2017-09-25T15:24:21.540Z,57.1
2017-09-25T15:29:26.608Z,57.1
2017-09-25T15:34:32.021Z,57.1
2017-09-25T15:39:37.415Z,57
2017-09-25T15:44:43.693Z,57.1
2017-09-25T15:49:48.429Z,57.1
2017-09-25T15:54:53.494Z,57.2
2017-09-25T15:59:58.893Z,57.3
2017-09-25T16:05:03.624Z,57.2
2017-09-25T16:10:08.688Z,57
2017-09-25T16:15:13.757Z,56.9
2017-09-25T16:20:19.495Z,57
2017-09-25T16:25:24.222Z,57.1
2017-09-25T16:30:29.284Z,57.2
2017-09-25T16:35:34.009Z,57.3
2017-09-25T16:40:39.415Z,57.4
2017-09-25T16:45:44.486Z,57.5
2017-09-25T16:50:49.215Z,57.5
2017-09-25T16:55:54.279Z,57.5
2017-09-25T17:01:00.017Z,57.5
2017-09-25T17:06:05.417Z,57.6
2017-09-25T17:11:10.819Z,57.6
2017-09-25T17:16:15.892Z,57.6
2017-09-25T17:21:21.290Z,57.6
2017-09-25T17:26:26.354Z,57.6
2017-09-25T17:31:31.084Z,57.6
2017-09-25T17:36:36.151Z,57.6
2017-09-25T17:41:40.544Z,57.7
2017-09-25T17:46:45.272Z,57.7
2017-09-25T17:51:49.995Z,57.9
2017-09-25T17:56:55.389Z,57.9
2017-09-25T18:02:01.134Z,58
2017-09-25T18:07:06.537Z,58
2017-09-25T18:12:11.271Z,58.1
2017-09-25T18:17:17.003Z,58.3
2017-09-25T18:22:22.756Z,58.5
2017-09-25T18:27:27.154Z,58.6
2017-09-25T18:32:32.577Z,58.9
2017-09-25T18:37:37.318Z,59
2017-09-25T18:42:42.384Z,59
2017-09-25T18:47:47.792Z,59
2017-09-25T18:52:52.526Z,59.1
2017-09-25T18:57:57.263Z,59.3
2017-09-25T19:03:02.920Z,59.4
2017-09-25T19:08:07.992Z,59.5
2017-09-25T19:13:12.737Z,59.5
2017-09-25T19:18:18.140Z,59.5
2017-09-25T19:23:22.885Z,59.5
2017-09-25T19:28:28.306Z,59.5
2017-09-25T19:33:33.061Z,59.5
2017-09-25T19:38:38.135Z,59.4
2017-09-25T19:43:43.884Z,59.4
2017-09-25T19:48:48.953Z,59.4
2017-09-25T19:53:54.690Z,59.4
2017-09-25T19:58:59.424Z,59.5
2017-09-25T20:04:04.152Z,59.4
2017-09-25T20:09:09.229Z,59.4
2017-09-25T20:14:14.296Z,59.4
2017-09-25T20:19:18.696Z,59.4
2017-09-25T20:24:24.776Z,59.3
2017-09-25T20:29:29.840Z,59.3
2017-09-25T20:34:34.913Z,59.2
2017-09-25T20:39:40.034Z,59.1
2017-09-25T20:44:44.792Z,58.9
2017-09-25T20:49:49.855Z,58.9
2017-09-25T20:54:54.591Z,58.9
2017-09-25T21:00:00.003Z,58.9
2017-09-25T21:05:05.072Z,58.9
2017-09-25T21:10:10.143Z,58.9
2017-09-25T21:15:14.545Z,59
2017-09-25T21:20:19.618Z,58.9
2017-09-25T21:25:25.355Z,58.9
2017-09-25T21:30:29.747Z,58.9
2017-09-25T21:35:34.818Z,58.9
2017-09-25T21:40:40.558Z,58.8
2017-09-25T21:45:44.959Z,58.8
2017-09-25T21:50:50.365Z,58.8
2017-09-25T21:55:55.435Z,58.7
2017-09-25T22:01:00.843Z,58.7
2017-09-25T22:06:06.582Z,58.7
2017-09-25T22:11:11.989Z,58.7
2017-09-25T22:16:17.059Z,58.7
2017-09-25T22:21:21.786Z,58.8
2017-09-25T22:26:27.523Z,58.8
2017-09-25T22:31:33.257Z,58.7
2017-09-25T22:36:37.990Z,58.7
2017-09-25T22:41:43.388Z,58.7
2017-09-25T22:46:48.450Z,58.7
2017-09-25T22:51:52.847Z,58.6
2017-09-25T22:56:58.578Z,58.6
2017-09-25T23:02:03.641Z,58.6
2017-09-25T23:07:08.701Z,58.5
2017-09-25T23:12:14.102Z,58.5
2017-09-25T23:17:20.167Z,58.5
2017-09-25T23:22:25.227Z,58.5
2017-09-25T23:27:30.285Z,58.4
2017-09-25T23:32:35.691Z,58.4
2017-09-25T23:37:40.420Z,58.3
2017-09-25T23:42:45.815Z,58.3
2017-09-25T23:47:50.874Z,58.3
2017-09-25T23:52:56.268Z,58.2
2017-09-25T23:58:00.994Z,58.2
